Mobile, Arizona
Current Conditions -  °F | °C
As of 10:15 PM on Tuesday 25 Nov 2014 (Local Time) from KCGZ Reporting Station
Clear Clear  
Wind Chill: 45°   Ceiling: Unl
Heat Index: 45°   Visibility: 10mi
Dew Point:   Wind: 0mph
Humidity: 17%   Direction: NA
Pressure: 30.32"   Gusts: NA
Location:  32.9044°N, 112.146°W
Report Text: KCGZ 260515Z AUTO 00000KT 10SM CLR 07/M17 A3032 RMK AO1
Loading
Personal Weather Stations






























Interactive Weather Map New forecast layout! Learn more

10-Day Weather Forecast

Advertisements
Track Severe Weather on mobile